createdAt,value
2016-06-22T00:00:39.238Z,94.89
2016-06-22T00:01:39.863Z,94.4
2016-06-22T00:02:39.280Z,93.93
2016-06-22T00:03:39.308Z,94.4
2016-06-22T00:04:39.947Z,94.31
2016-06-22T00:05:39.966Z,94.4
2016-06-22T00:06:39.374Z,94.21
2016-06-22T00:07:40.008Z,94.31
2016-06-22T00:08:39.422Z,95.26
2016-06-22T00:09:40.059Z,95.07
2016-06-22T00:10:54.360Z,95.17
2016-06-22T00:11:39.516Z,94.79
2016-06-22T00:13:40.157Z,95.31
2016-06-22T00:14:40.183Z,95.22
2016-06-22T00:15:40.213Z,95.22
2016-06-22T00:17:40.264Z,95.51
2016-06-22T00:18:39.669Z,95.51
2016-06-22T00:19:39.698Z,95.51
2016-06-22T00:20:39.715Z,95.6
2016-06-22T00:21:40.348Z,95.7
2016-06-22T00:22:39.772Z,95.6
2016-06-22T00:23:40.398Z,95.98
2016-06-22T00:24:40.430Z,95.89
2016-06-22T00:25:54.715Z,96.47
2016-06-22T00:26:40.473Z,96.18
2016-06-22T00:28:39.922Z,96.51
2016-06-22T00:29:39.932Z,96.56
2016-06-22T00:30:40.577Z,97.33
2016-06-22T00:31:40.592Z,96.75
2016-06-22T00:32:40.003Z,96.75
2016-06-22T00:33:40.034Z,96.75
2016-06-22T00:34:40.663Z,96.75
2016-06-22T00:35:40.690Z,96.47
2016-06-22T00:36:40.708Z,96.56
2016-06-22T00:38:40.765Z,96.51
2016-06-22T00:39:40.787Z,96.8
2016-06-22T00:40:40.205Z,96.8
2016-06-22T00:41:40.222Z,96.7
2016-06-22T00:42:40.246Z,96.61
2016-06-22T00:44:40.304Z,96.7
2016-06-22T00:45:40.334Z,96.61
2016-06-22T00:46:40.959Z,97.28
2016-06-22T00:47:40.367Z,97.09
2016-06-22T00:48:41.231Z,96.7
2016-06-22T00:49:41.039Z,96.89
2016-06-22T00:50:40.459Z,96.7
2016-06-22T00:51:40.477Z,96.7
2016-06-22T00:52:40.497Z,96.89
2016-06-22T00:53:40.548Z,97.09
2016-06-22T00:54:40.546Z,97.28
2016-06-22T00:55:40.575Z,97.38
2016-06-22T00:56:40.598Z,96.7
2016-06-22T00:57:55.493Z,96.89
2016-06-22T00:58:41.251Z,96.89
2016-06-22T00:59:40.664Z,97.09
2016-06-22T01:00:41.306Z,97.09
2016-06-22T01:01:40.723Z,97.28
2016-06-22T01:02:41.357Z,97.28
2016-06-22T01:03:40.771Z,97.09
2016-06-22T01:04:40.785Z,97.18
2016-06-22T01:05:40.807Z,97.75
2016-06-22T01:06:41.451Z,97.85
2016-06-22T01:07:40.864Z,97.66
2016-06-22T01:08:41.495Z,97.66
2016-06-22T01:09:40.911Z,97.28
2016-06-22T01:10:40.928Z,97.66
2016-06-22T01:12:40.983Z,97.85
2016-06-22T01:13:55.879Z,97.75
2016-06-22T01:15:41.050Z,97.75
2016-06-22T01:16:41.682Z,97.56
2016-06-22T01:17:41.096Z,97.28
2016-06-22T01:18:41.130Z,97.66
2016-06-22T01:19:41.758Z,97.66
2016-06-22T01:20:41.810Z,96.99
2016-06-22T01:21:41.803Z,97.66
2016-06-22T01:22:41.219Z,97.66
2016-06-22T01:23:41.885Z,97.18
2016-06-22T01:24:41.876Z,97.18
2016-06-22T01:25:41.291Z,97.42
2016-06-22T01:26:41.922Z,97.85
2016-06-22T01:27:41.345Z,97.85
2016-06-22T01:28:41.366Z,97.71
2016-06-22T01:29:56.263Z,97.47
2016-06-22T01:30:42.016Z,98.28
2016-06-22T01:31:42.053Z,97.8
2016-06-22T01:33:42.088Z,98
2016-06-22T01:34:42.130Z,97.9
2016-06-22T01:35:42.140Z,98.09
2016-06-22T01:36:41.557Z,97.9
2016-06-22T01:37:41.583Z,97.8
2016-06-22T01:38:41.605Z,97.9
2016-06-22T01:39:41.630Z,98
2016-06-22T01:40:42.261Z,97.8
2016-06-22T01:41:42.280Z,97.9
2016-06-22T01:42:42.319Z,97.71
2016-06-22T01:43:41.726Z,98
2016-06-22T01:45:56.657Z,98
2016-06-22T01:46:42.405Z,97.71
2016-06-22T01:47:42.429Z,98.19
2016-06-22T01:48:42.455Z,97.61
2016-06-22T01:49:42.486Z,97.61
2016-06-22T01:50:42.511Z,97.9
2016-06-22T01:51:41.913Z,96.94
2016-06-22T01:52:42.555Z,98.47
2016-06-22T01:53:41.962Z,97.9
2016-06-22T01:54:42.599Z,96.89
2016-06-22T01:55:42.657Z,97.09
2016-06-22T01:57:42.675Z,97.23
2016-06-22T01:58:42.078Z,97.52
2016-06-22T01:59:42.715Z,97.13
2016-06-22T02:00:57.015Z,98.19
2016-06-22T02:01:42.768Z,97.8
2016-06-22T02:02:42.175Z,97.61
2016-06-22T02:03:42.819Z,98.09
2016-06-22T02:04:42.237Z,97.8
2016-06-22T02:05:42.891Z,97.9
2016-06-22T02:06:42.284Z,98.09
2016-06-22T02:07:42.911Z,98
2016-06-22T02:08:42.935Z,98.28
2016-06-22T02:09:42.963Z,98.38
2016-06-22T02:10:42.375Z,98
2016-06-22T02:11:42.410Z,98.47
2016-06-22T02:12:43.032Z,98.38
2016-06-22T02:13:43.049Z,98.19
2016-06-22T02:14:42.474Z,98.57
2016-06-22T02:15:43.114Z,98.47
2016-06-22T02:16:43.137Z,98.86
2016-06-22T02:17:43.159Z,97.9
2016-06-22T02:18:43.192Z,98.28
2016-06-22T02:19:42.596Z,98.09
2016-06-22T02:20:43.230Z,98.38
2016-06-22T02:22:43.282Z,98.43
2016-06-22T02:23:43.301Z,98.81
2016-06-22T02:24:43.326Z,98.81
2016-06-22T02:25:43.350Z,98.81
2016-06-22T02:26:42.764Z,98.71
2016-06-22T02:27:42.785Z,99.48
2016-06-22T02:28:43.419Z,98.81
2016-06-22T02:29:43.446Z,98.61
2016-06-22T02:30:42.870Z,99.1
2016-06-22T02:31:43.492Z,99.24
2016-06-22T02:32:57.782Z,98.57
2016-06-22T02:33:42.927Z,98.47
2016-06-22T02:34:42.950Z,98.43
2016-06-22T02:35:42.978Z,98.38
2016-06-22T02:36:43.615Z,98.76
2016-06-22T02:37:43.025Z,98.47
2016-06-22T02:38:43.057Z,98.71
2016-06-22T02:39:43.684Z,98.71
2016-06-22T02:40:43.095Z,98.57
2016-06-22T02:41:43.133Z,98.66
2016-06-22T02:42:43.758Z,98.76
2016-06-22T02:43:43.174Z,98.09
2016-06-22T02:44:43.198Z,98.28
2016-06-22T02:46:43.855Z,98.47
2016-06-22T02:47:43.881Z,98.19
2016-06-22T02:48:58.170Z,98.76
2016-06-22T02:49:43.927Z,98
2016-06-22T02:51:43.974Z,97.52
2016-06-22T02:53:44.025Z,97.9
2016-06-22T02:54:44.048Z,97.8
2016-06-22T02:55:43.466Z,98.38
2016-06-22T02:56:44.101Z,98.81
2016-06-22T02:57:44.143Z,99.19
2016-06-22T02:58:43.535Z,98.52
2016-06-22T02:59:43.557Z,98.81
2016-06-22T03:00:43.585Z,98.71
2016-06-22T03:01:44.210Z,98.9
2016-06-22T03:02:44.247Z,98.61
2016-06-22T03:03:44.267Z,98.61
2016-06-22T03:04:58.551Z,98.71
2016-06-22T03:05:43.700Z,98.71
2016-06-22T03:06:43.729Z,98.81
2016-06-22T03:07:44.365Z,98.52
2016-06-22T03:08:43.768Z,99.38
2016-06-22T03:09:43.803Z,99
2016-06-22T03:10:44.419Z,98.9
2016-06-22T03:11:44.456Z,99.1
2016-06-22T03:12:44.480Z,99.29
2016-06-22T03:13:44.498Z,99.57
2016-06-22T03:14:43.922Z,99.67
2016-06-22T03:15:43.949Z,99.57
2016-06-22T03:16:44.571Z,99.38
2016-06-22T03:17:43.989Z,99
2016-06-22T03:19:44.042Z,99.38
2016-06-22T03:20:58.940Z,99.57
2016-06-22T03:21:44.700Z,99.15
2016-06-22T03:22:44.110Z,99.15
2016-06-22T03:23:44.139Z,99.24
2016-06-22T03:24:44.161Z,99.33
2016-06-22T03:25:44.789Z,98.9
2016-06-22T03:27:44.842Z,99.52
2016-06-22T03:28:44.250Z,98.95
2016-06-22T03:29:44.275Z,98.66
2016-06-22T03:30:44.298Z,99.33
2016-06-22T03:31:44.332Z,99.33
2016-06-22T03:32:44.958Z,99.33
2016-06-22T03:33:44.371Z,99.24
2016-06-22T03:34:44.402Z,99.15
2016-06-22T03:35:59.302Z,99.43
2016-06-22T03:36:44.451Z,99.43
2016-06-22T03:37:45.083Z,99.43
2016-06-22T03:38:45.096Z,99.62
2016-06-22T03:39:45.129Z,99.72
2016-06-22T03:40:44.549Z,99.81
2016-06-22T03:41:44.565Z,99.99
2016-06-22T03:42:44.592Z,99.81
2016-06-22T03:43:44.618Z,99.87
2016-06-22T03:44:44.635Z,99.87
2016-06-22T03:45:44.677Z,99.99
2016-06-22T03:46:44.691Z,99.53
2016-06-22T03:47:44.721Z,99.15
2016-06-22T03:48:44.745Z,98.57
2016-06-22T03:49:45.371Z,98.38
2016-06-22T03:50:45.394Z,98.28
2016-06-22T03:51:44.823Z,98.38
2016-06-22T03:52:44.830Z,98.19
2016-06-22T03:53:44.854Z,98.14
2016-06-22T03:54:44.882Z,98.14
2016-06-22T03:55:45.524Z,97.85
2016-06-22T03:57:45.558Z,97.47
2016-06-22T03:58:45.587Z,97.04
2016-06-22T03:59:44.998Z,95.79
2016-06-22T04:00:45.023Z,95.41
2016-06-22T04:01:45.658Z,94.45
2016-06-22T04:03:45.710Z,94.07
2016-06-22T04:04:45.758Z,93.4
2016-06-22T04:05:45.770Z,92.63
2016-06-22T04:06:45.172Z,92.24
2016-06-22T04:08:00.075Z,92.48
2016-06-22T04:08:45.217Z,92.44
2016-06-22T04:09:45.258Z,92.86
2016-06-22T04:12:45.321Z,91.81
2016-06-22T04:13:45.345Z,91.72
2016-06-22T04:14:45.970Z,91.24
2016-06-22T04:15:46.005Z,91.24
2016-06-22T04:16:46.024Z,92.1
2016-06-22T04:17:45.441Z,92
2016-06-22T04:18:46.078Z,90.95
2016-06-22T04:19:45.489Z,90.56
2016-06-22T04:20:46.121Z,90.66
2016-06-22T04:21:46.144Z,91.05
2016-06-22T04:22:46.172Z,90.95
2016-06-22T04:24:00.469Z,91.24
2016-06-22T04:24:46.223Z,90.47
2016-06-22T04:25:45.630Z,90.52
2016-06-22T04:26:46.267Z,90.03
2016-06-22T04:27:45.687Z,90.7
2016-06-22T04:28:45.723Z,90.66
2016-06-22T04:29:45.727Z,90.42
2016-06-22T04:30:45.754Z,90.22
2016-06-22T04:31:45.789Z,90.42
2016-06-22T04:32:45.811Z,90.32
2016-06-22T04:33:46.437Z,89.36
2016-06-22T04:34:45.863Z,89.17
2016-06-22T04:35:46.491Z,88.88
2016-06-22T04:36:45.909Z,88.88
2016-06-22T04:38:46.580Z,87.29
2016-06-22T04:40:00.856Z,88.06
2016-06-22T04:41:46.042Z,87.43
2016-06-22T04:42:46.672Z,86.47
2016-06-22T04:43:46.079Z,85.61
2016-06-22T04:44:46.711Z,85.51
2016-06-22T04:45:46.746Z,86.13
2016-06-22T04:46:46.772Z,85.75
2016-06-22T04:47:46.784Z,85.27
2016-06-22T04:48:46.832Z,83.77
2016-06-22T04:49:46.842Z,82.75
2016-06-22T04:50:46.859Z,82.08
2016-06-22T04:51:46.893Z,80.92
2016-06-22T04:52:46.908Z,78.88
2016-06-22T04:53:46.965Z,77.19
2016-06-22T04:54:46.972Z,76.84
2016-06-22T04:56:01.263Z,75.4
2016-06-22T04:56:47.022Z,73.11
2016-06-22T04:57:47.049Z,70.39
2016-06-22T04:58:47.090Z,70.14
2016-06-22T04:59:46.491Z,70.62
2016-06-22T05:01:46.535Z,64.72
2016-06-22T05:02:46.572Z,60.65
2016-06-22T05:03:46.597Z,58.7
2016-06-22T05:05:47.273Z,56.18
2016-06-22T05:06:46.685Z,57.73
2016-06-22T05:07:46.709Z,58.94
2016-06-22T05:08:47.347Z,58.16
2016-06-22T05:09:47.384Z,56.93
2016-06-22T05:11:01.677Z,53.78
2016-06-22T05:11:46.834Z,52.01
2016-06-22T05:12:47.481Z,53.16
2016-06-22T05:13:46.889Z,53.06
2016-06-22T05:14:46.921Z,53.81
2016-06-22T05:15:46.943Z,54
2016-06-22T05:16:47.582Z,54.85
2016-06-22T05:17:47.609Z,55.02
2016-06-22T05:18:47.656Z,56.74
2016-06-22T05:19:47.672Z,56.81
2016-06-22T05:20:47.091Z,57.19
2016-06-22T05:21:47.730Z,57.87
2016-06-22T05:22:47.152Z,56.9
2016-06-22T05:23:47.184Z,55.77
2016-06-22T05:26:47.880Z,55.87
2016-06-22T05:27:47.901Z,55.11
2016-06-22T05:28:47.327Z,54.44
2016-06-22T05:29:47.358Z,51.57
2016-06-22T05:30:47.387Z,48.27
2016-06-22T05:31:47.443Z,46.2
2016-06-22T05:32:48.064Z,46.07
2016-06-22T05:33:47.485Z,44.12
2016-06-22T05:34:48.133Z,44.21
2016-06-22T05:35:48.152Z,45.34
2016-06-22T05:36:48.200Z,45.92
2016-06-22T05:38:48.242Z,42.97
2016-06-22T05:39:48.271Z,42.89
2016-06-22T05:40:47.695Z,42.19
2016-06-22T05:41:48.336Z,40.37
2016-06-22T05:43:02.646Z,39.12
2016-06-22T05:43:48.447Z,39.76
2016-06-22T05:44:47.829Z,39.94
2016-06-22T05:45:47.861Z,39.92
2016-06-22T05:46:47.892Z,40.88
2016-06-22T05:47:48.529Z,40.95
2016-06-22T05:48:48.566Z,41.82
2016-06-22T05:49:47.992Z,41.33
2016-06-22T05:50:48.623Z,41.5
2016-06-22T05:51:48.051Z,42.55
2016-06-22T05:52:48.726Z,43.73
2016-06-22T05:53:48.111Z,43.73
2016-06-22T05:54:48.755Z,42.73
2016-06-22T05:55:48.181Z,43.71
2016-06-22T05:56:48.819Z,43.88
2016-06-22T05:57:48.237Z,45.12
2016-06-22T05:59:03.158Z,45.68
2016-06-22T06:00:48.330Z,45.03
2016-06-22T06:01:48.365Z,43.39
2016-06-22T06:02:48.402Z,42.63
2016-06-22T06:03:49.048Z,41.09
2016-06-22T06:04:49.082Z,39.47
2016-06-22T06:05:49.111Z,38.45
2016-06-22T06:07:48.567Z,35.99
2016-06-22T06:08:48.595Z,34.34
2016-06-22T06:09:49.238Z,32.33
2016-06-22T06:10:48.673Z,33.05
2016-06-22T06:11:48.693Z,32.05
2016-06-22T06:12:49.339Z,31.98
2016-06-22T06:13:49.379Z,30.52
2016-06-22T06:15:03.680Z,31.52
2016-06-22T06:15:48.834Z,28.68
2016-06-22T06:16:49.479Z,29.96
2016-06-22T06:17:48.901Z,28.38
2016-06-22T06:18:49.570Z,29
2016-06-22T06:19:48.970Z,28.7
2016-06-22T06:20:49.021Z,28.03
2016-06-22T06:21:49.052Z,27.25
2016-06-22T06:22:49.086Z,26.18
2016-06-22T06:23:49.120Z,26.18
2016-06-22T06:24:49.159Z,27.14
2016-06-22T06:25:49.805Z,27.75
2016-06-22T06:27:49.906Z,28.14
2016-06-22T06:28:49.909Z,27.64
2016-06-22T06:29:49.957Z,27.55
2016-06-22T06:31:04.258Z,26.46
2016-06-22T06:31:49.418Z,26.67
2016-06-22T06:33:49.485Z,26.78
2016-06-22T06:34:50.140Z,26.28
2016-06-22T06:35:50.165Z,25.99
2016-06-22T06:36:49.601Z,27.55
2016-06-22T06:37:49.637Z,26.54
2016-06-22T06:38:50.281Z,27.83
2016-06-22T06:39:49.715Z,28.33
2016-06-22T06:40:49.757Z,28.14
2016-06-22T06:41:49.790Z,25.78
2016-06-22T06:42:50.431Z,25.42
2016-06-22T06:43:49.871Z,24.93
2016-06-22T06:44:50.518Z,24.05
2016-06-22T06:46:04.855Z,25.63
2016-06-22T06:46:50.011Z,26.89
2016-06-22T06:47:50.020Z,25.51
2016-06-22T06:49:50.110Z,25.34
2016-06-22T06:50:50.127Z,24.35
2016-06-22T06:51:50.166Z,23.37
2016-06-22T06:52:50.217Z,23.67
2016-06-22T06:53:50.246Z,26.33
2016-06-22T06:54:50.283Z,25.61
2016-06-22T06:55:50.930Z,25.5
2016-06-22T06:56:50.975Z,24.22
2016-06-22T06:57:51.006Z,23.75
2016-06-22T06:58:51.050Z,23.97
2016-06-22T06:59:50.480Z,24.95
2016-06-22T07:00:50.526Z,25.71
2016-06-22T07:03:50.641Z,27.53
2016-06-22T07:04:50.666Z,28.02
2016-06-22T07:05:50.705Z,27.3
2016-06-22T07:06:50.748Z,29.75
2016-06-22T07:07:50.782Z,30.52
2016-06-22T07:08:50.818Z,30.03
2016-06-22T07:09:51.459Z,29.14
2016-06-22T07:10:50.894Z,28.66
2016-06-22T07:11:51.530Z,28.58
2016-06-22T07:12:50.995Z,28.09
2016-06-22T07:13:51.614Z,27.81
2016-06-22T07:14:51.654Z,27.62
2016-06-22T07:15:51.071Z,26.75
2016-06-22T07:16:51.726Z,26.73
2016-06-22T07:18:06.046Z,26.83
2016-06-22T07:18:51.185Z,28.61
2016-06-22T07:19:51.231Z,27.11
2016-06-22T07:20:51.866Z,28.61
2016-06-22T07:21:51.951Z,28.33
2016-06-22T07:22:51.341Z,28.23
2016-06-22T07:23:51.390Z,26.94
2016-06-22T07:24:51.622Z,26.15
2016-06-22T07:25:52.048Z,27.72
2016-06-22T07:26:52.095Z,29.57
2016-06-22T07:27:51.771Z,28.09
2016-06-22T07:28:51.556Z,28.13
2016-06-22T07:29:51.620Z,26.96
2016-06-22T07:30:52.246Z,26.08
2016-06-22T07:31:52.293Z,24.22
2016-06-22T07:32:52.629Z,24.24
2016-06-22T07:34:06.626Z,23.56
2016-06-22T07:35:51.808Z,26.7
2016-06-22T07:36:52.905Z,25.42
2016-06-22T07:37:52.503Z,24.56
2016-06-22T07:38:51.958Z,23.67
2016-06-22T07:39:52.138Z,25.86
2016-06-22T07:40:52.617Z,25.35
2016-06-22T07:41:52.778Z,24.18
2016-06-22T07:42:52.978Z,24.47
2016-06-22T07:43:52.743Z,23.37
2016-06-22T07:44:52.772Z,24.04
2016-06-22T07:45:52.838Z,24.65
2016-06-22T07:46:52.238Z,23.28
2016-06-22T07:47:52.883Z,23.57
2016-06-22T07:48:52.327Z,24.14
2016-06-22T07:50:07.235Z,23.66
2016-06-22T07:50:52.397Z,23.18
2016-06-22T07:51:52.655Z,24.27
2016-06-22T07:52:52.474Z,23.56
2016-06-22T07:53:52.517Z,25.44
2016-06-22T07:54:52.552Z,24.54
2016-06-22T07:55:52.622Z,23.94
2016-06-22T07:56:52.622Z,25.63
2016-06-22T07:57:53.268Z,24.25
2016-06-22T07:58:53.315Z,24.63
2016-06-22T07:59:52.737Z,24.33
2016-06-22T08:00:52.769Z,25.91
2016-06-22T08:01:53.435Z,25.62
2016-06-22T08:02:53.463Z,25.51
2016-06-22T08:03:53.500Z,25.42
2016-06-22T08:06:07.848Z,24.24
2016-06-22T08:06:53.014Z,23.63
2016-06-22T08:07:53.662Z,25.52
2016-06-22T08:08:53.087Z,25.79
2016-06-22T08:09:53.732Z,25.91
2016-06-22T08:10:53.777Z,24.92
2016-06-22T08:11:53.189Z,24.22
2016-06-22T08:12:53.850Z,25.72
2016-06-22T08:13:53.888Z,25.04
2016-06-22T08:14:53.931Z,25.42
2016-06-22T08:15:53.348Z,24.54
2016-06-22T08:16:53.387Z,23.85
2016-06-22T08:17:53.423Z,24.22
2016-06-22T08:18:54.076Z,24.52
2016-06-22T08:21:08.427Z,25.01
2016-06-22T08:21:53.585Z,23.62
2016-06-22T08:22:53.620Z,25.12
2016-06-22T08:23:53.650Z,25.32
2016-06-22T08:24:54.308Z,25.21
2016-06-22T08:25:54.349Z,24.54
2016-06-22T08:26:54.385Z,25.43
2016-06-22T08:27:54.424Z,24.24
2016-06-22T08:28:54.455Z,25.21
2016-06-22T08:29:54.497Z,24.63
2016-06-22T08:30:53.931Z,23.44
2016-06-22T08:31:53.966Z,25.99
2016-06-22T08:32:54.015Z,25.08
2016-06-22T08:33:54.030Z,25.57
2016-06-22T08:34:54.084Z,26.15
2016-06-22T08:35:54.726Z,27.03
2016-06-22T08:36:54.757Z,26.43
2016-06-22T08:37:54.797Z,25.77
2016-06-22T08:38:54.830Z,25.02
2016-06-22T08:39:54.879Z,25.33
2016-06-22T08:40:54.919Z,24.92
2016-06-22T08:41:54.953Z,24.21
2016-06-22T08:42:54.989Z,25.6
2016-06-22T08:43:55.026Z,25.77
2016-06-22T08:45:55.120Z,29.09
2016-06-22T08:46:54.518Z,27.89
2016-06-22T08:47:55.174Z,28.99
2016-06-22T08:48:55.214Z,29.38
2016-06-22T08:49:54.635Z,28.1
2016-06-22T08:50:55.280Z,29.96
2016-06-22T08:53:09.623Z,30.15
2016-06-22T08:53:54.773Z,30.22
2016-06-22T08:54:55.420Z,29.93
2016-06-22T08:56:54.893Z,29.05
2016-06-22T08:57:55.535Z,29.33
2016-06-22T08:58:54.962Z,30.21
2016-06-22T08:59:55.622Z,28.45
2016-06-22T09:00:55.049Z,29.05
2016-06-22T09:01:55.691Z,29.24
2016-06-22T09:02:55.723Z,29.34
2016-06-22T09:03:55.755Z,28.95
2016-06-22T09:04:55.174Z,27.47
2016-06-22T09:05:55.210Z,28.74
2016-06-22T09:06:55.250Z,28.54
2016-06-22T09:07:55.319Z,29.03
2016-06-22T09:09:10.196Z,29.9
2016-06-22T09:09:55.355Z,29.33
2016-06-22T09:10:56.020Z,27.96
2016-06-22T09:12:56.074Z,28.85
2016-06-22T09:13:56.112Z,27.76
2016-06-22T09:14:56.139Z,27.67
2016-06-22T09:15:55.562Z,27.36
2016-06-22T09:16:56.222Z,27.44
2016-06-22T09:17:55.635Z,27.45
2016-06-22T09:18:55.676Z,28.54
2016-06-22T09:19:55.706Z,27.25
2016-06-22T09:20:56.348Z,26.77
2016-06-22T09:22:55.814Z,29.21
2016-06-22T09:23:56.450Z,28.54
2016-06-22T09:25:10.761Z,27.95
2016-06-22T09:25:55.924Z,27.37
2016-06-22T09:26:55.969Z,28.55
2016-06-22T09:27:56.595Z,27.57
2016-06-22T09:28:56.623Z,26.58
2016-06-22T09:29:56.667Z,25.21
2016-06-22T09:30:56.702Z,26.37
2016-06-22T09:31:56.736Z,25.87
2016-06-22T09:32:56.774Z,27.86
2016-06-22T09:33:56.807Z,27.34
2016-06-22T09:34:56.843Z,28.26
2016-06-22T09:35:56.878Z,28.05
2016-06-22T09:36:56.910Z,26.39
2016-06-22T09:37:56.945Z,27.17
2016-06-22T09:38:56.979Z,26.29
2016-06-22T09:39:56.398Z,26.59
2016-06-22T09:41:11.319Z,25.52
2016-06-22T09:41:57.084Z,26.02
2016-06-22T09:42:57.117Z,27.89
2016-06-22T09:43:56.551Z,27.48
2016-06-22T09:44:56.575Z,26.7
2016-06-22T09:45:56.615Z,26.79
2016-06-22T09:46:57.263Z,26.71
2016-06-22T09:47:56.683Z,26.71
2016-06-22T09:48:57.339Z,27
2016-06-22T09:49:56.764Z,24.17
2016-06-22T09:50:57.398Z,23.87
2016-06-22T09:51:56.821Z,25.55
2016-06-22T09:52:56.859Z,24.16
2016-06-22T09:53:56.890Z,25.65
2016-06-22T09:54:56.927Z,23.87
2016-06-22T09:56:11.844Z,26.54
2016-06-22T09:56:56.994Z,26.32
2016-06-22T09:57:57.637Z,26.24
2016-06-22T09:58:57.075Z,23.97
2016-06-22T09:59:57.098Z,25.26
2016-06-22T10:00:57.138Z,23.98
2016-06-22T10:01:57.778Z,24.26
2016-06-22T10:02:57.207Z,25.93
2016-06-22T10:03:57.236Z,24.16
2016-06-22T10:04:57.275Z,25.95
2016-06-22T10:05:57.927Z,26.03
2016-06-22T10:06:57.941Z,25.35
2016-06-22T10:07:57.373Z,24.64
2016-06-22T10:08:58.021Z,25.72
2016-06-22T10:09:58.071Z,25.81
2016-06-22T10:10:57.472Z,25.71
2016-06-22T10:11:58.124Z,25.82
2016-06-22T10:12:57.542Z,26.98
2016-06-22T10:14:58.231Z,24.15
2016-06-22T10:15:58.259Z,25.1
2016-06-22T10:16:57.686Z,25.49
2016-06-22T10:17:57.730Z,26.45
2016-06-22T10:18:57.759Z,28.51
2016-06-22T10:19:58.403Z,27.04
2016-06-22T10:20:57.816Z,27.14
2016-06-22T10:21:57.858Z,28.59
2016-06-22T10:22:57.882Z,29.02
2016-06-22T10:23:57.919Z,28.44
2016-06-22T10:24:57.958Z,24.33
2016-06-22T10:25:58.606Z,25.02
2016-06-22T10:26:58.022Z,26.58
2016-06-22T10:28:12.937Z,28.55
2016-06-22T10:28:58.699Z,26.29
2016-06-22T10:29:58.730Z,28.37
2016-06-22T10:30:58.777Z,26.58
2016-06-22T10:31:58.800Z,26.59
2016-06-22T10:32:58.262Z,28.06
2016-06-22T10:33:58.867Z,27.34
2016-06-22T10:34:58.917Z,29.21
2016-06-22T10:35:58.329Z,27.64
2016-06-22T10:36:58.972Z,28.34
2016-06-22T10:37:58.390Z,27.85
2016-06-22T10:38:58.424Z,25.87
2016-06-22T10:40:59.108Z,28.51
2016-06-22T10:41:59.129Z,26.14
2016-06-22T10:42:58.575Z,27.12
2016-06-22T10:44:13.477Z,28.95
2016-06-22T10:44:58.631Z,28.45
2016-06-22T10:45:58.664Z,28.74
2016-06-22T10:46:58.701Z,28.36
2016-06-22T10:48:58.766Z,28.74
2016-06-22T10:49:59.407Z,29.24
2016-06-22T10:50:59.438Z,27.66
2016-06-22T10:51:59.476Z,27.37
2016-06-22T10:52:58.892Z,30.32
2016-06-22T10:53:58.935Z,29.53
2016-06-22T10:54:58.963Z,30.02
2016-06-22T10:55:59.610Z,30.12
2016-06-22T10:57:59.062Z,30.12
2016-06-22T10:58:59.717Z,30.12
2016-06-22T11:00:14.017Z,29.63
2016-06-22T11:01:59.194Z,29.14
2016-06-22T11:02:59.848Z,28.55
2016-06-22T11:03:59.876Z,32.28
2016-06-22T11:04:59.294Z,29.34
2016-06-22T11:05:59.334Z,28.65
2016-06-22T11:06:59.978Z,31.97
2016-06-22T11:07:59.391Z,29.91
2016-06-22T11:09:00.045Z,30.01
2016-06-22T11:10:00.073Z,29.34
2016-06-22T11:10:59.488Z,28.75
2016-06-22T11:12:00.142Z,27.85
2016-06-22T11:13:00.170Z,29.6
2016-06-22T11:13:59.595Z,30.47
2016-06-22T11:15:00.236Z,30.47
2016-06-22T11:16:14.540Z,32.12
2016-06-22T11:16:59.704Z,31.93
2016-06-22T11:18:59.763Z,30.94
2016-06-22T11:20:00.409Z,32.63
2016-06-22T11:20:59.840Z,32.9
2016-06-22T11:21:59.894Z,32.4
2016-06-22T11:23:00.499Z,32.01
2016-06-22T11:23:59.922Z,32.89
2016-06-22T11:24:59.961Z,33.97
2016-06-22T11:25:59.984Z,32.5
2016-06-22T11:27:00.025Z,33.97
2016-06-22T11:28:00.051Z,33.77
2016-06-22T11:29:00.083Z,33.2
2016-06-22T11:30:00.732Z,33.79
2016-06-22T11:31:15.034Z,33.89
2016-06-22T11:32:00.183Z,32.22
2016-06-22T11:34:00.944Z,32.81
2016-06-22T11:35:00.895Z,31.84
2016-06-22T11:36:00.315Z,32.9
2016-06-22T11:37:00.957Z,32.92
2016-06-22T11:38:00.386Z,32.82
2016-06-22T11:39:01.028Z,34.39
2016-06-22T11:40:00.445Z,31.37
2016-06-22T11:41:01.094Z,33.14
2016-06-22T11:42:01.123Z,30.98
2016-06-22T11:43:00.538Z,31.57
2016-06-22T11:44:01.178Z,31.93
2016-06-22T11:45:00.609Z,30.75
2016-06-22T11:46:01.248Z,32.03
2016-06-22T11:47:01.283Z,30.55
2016-06-22T11:49:01.341Z,29.87
2016-06-22T11:51:01.403Z,33.29
2016-06-22T11:52:00.831Z,31.94
2016-06-22T11:53:00.867Z,33.12
2016-06-22T11:54:00.889Z,30.57
2016-06-22T11:55:00.926Z,29.79
2016-06-22T11:56:01.586Z,31.63
2016-06-22T11:57:01.607Z,31.83
2016-06-22T11:58:01.636Z,30.65
2016-06-22T11:59:01.065Z,30.08
2016-06-22T12:00:01.090Z,33.31
2016-06-22T12:02:01.765Z,30.58
2016-06-22T12:03:16.067Z,31.96
2016-06-22T12:04:01.220Z,32.64
2016-06-22T12:05:01.860Z,30.58
2016-06-22T12:06:01.288Z,31.84
2016-06-22T12:07:01.931Z,31.83
2016-06-22T12:08:01.970Z,32.51
2016-06-22T12:10:01.415Z,33.14
2016-06-22T12:11:01.455Z,31.57
2016-06-22T12:12:02.101Z,30.88
2016-06-22T12:13:01.503Z,32.54
2016-06-22T12:14:01.544Z,33.12
2016-06-22T12:15:01.571Z,33.9
2016-06-22T12:16:01.604Z,32.04
2016-06-22T12:17:01.647Z,32.45
2016-06-22T12:18:01.677Z,34.31
2016-06-22T12:19:16.581Z,32.86
2016-06-22T12:20:02.347Z,32.97
2016-06-22T12:21:01.770Z,32.07
2016-06-22T12:22:01.794Z,34.01
2016-06-22T12:23:01.832Z,32.25
2016-06-22T12:24:02.479Z,32.73
2016-06-22T12:25:02.527Z,34.96
2016-06-22T12:26:02.541Z,33.31
2016-06-22T12:27:02.573Z,33.51
2016-06-22T12:28:01.989Z,34.78
2016-06-22T12:29:02.018Z,34.1
2016-06-22T12:30:02.061Z,33.69
2016-06-22T12:31:02.705Z,33.79
2016-06-22T12:32:02.115Z,34.67
2016-06-22T12:34:02.186Z,34.57
2016-06-22T12:35:17.103Z,35.45
2016-06-22T12:36:02.863Z,34.18
2016-06-22T12:37:02.896Z,34
2016-06-22T12:38:02.314Z,34.88
2016-06-22T12:39:02.959Z,35.47
2016-06-22T12:41:02.407Z,35.66
2016-06-22T12:42:03.063Z,34.3
2016-06-22T12:43:02.473Z,35.94
2016-06-22T12:44:03.123Z,36.02
2016-06-22T12:45:02.530Z,36.9
2016-06-22T12:46:02.564Z,36.51
2016-06-22T12:47:03.213Z,36.51
2016-06-22T12:48:02.629Z,35.81
2016-06-22T12:49:02.662Z,37.27
2016-06-22T12:51:17.610Z,36.4
2016-06-22T12:52:02.774Z,36.47
2016-06-22T12:54:02.816Z,36
2016-06-22T12:55:03.463Z,37.26
2016-06-22T12:56:02.890Z,38.02
2016-06-22T12:57:02.918Z,38.32
2016-06-22T12:58:02.945Z,37.04
2016-06-22T12:59:03.003Z,38.61
2016-06-22T13:00:03.010Z,37.41
2016-06-22T13:02:03.086Z,38.77
2016-06-22T13:03:03.103Z,39.65
2016-06-22T13:04:03.783Z,39.65
2016-06-22T13:06:18.083Z,40.25
2016-06-22T13:07:03.841Z,39.86
2016-06-22T13:08:03.259Z,39.96
2016-06-22T13:09:03.289Z,40.06
2016-06-22T13:10:03.329Z,39.67
2016-06-22T13:11:03.992Z,40.95
2016-06-22T13:12:03.398Z,39.2
2016-06-22T13:13:04.034Z,39.51
2016-06-22T13:14:04.064Z,38.34
2016-06-22T13:15:04.109Z,39.33
2016-06-22T13:16:04.125Z,37.79
2016-06-22T13:17:03.583Z,37.1
2016-06-22T13:18:04.187Z,35.44
2016-06-22T13:19:03.610Z,37.18
2016-06-22T13:20:04.257Z,37.18
2016-06-22T13:21:04.294Z,37.18
2016-06-22T13:22:03.695Z,37.65
2016-06-22T13:23:03.734Z,37.65
2016-06-22T13:24:03.768Z,38.82
2016-06-22T13:25:03.814Z,39.59
2016-06-22T13:26:04.443Z,38.42
2016-06-22T13:27:04.490Z,39.78
2016-06-22T13:28:03.902Z,40.82
2016-06-22T13:29:04.543Z,40.33
2016-06-22T13:30:04.568Z,41.87
2016-06-22T13:31:04.593Z,42.24
2016-06-22T13:32:04.036Z,42.34
2016-06-22T13:33:04.046Z,43.78
2016-06-22T13:34:04.078Z,43.08
2016-06-22T13:35:04.118Z,44.05
2016-06-22T13:36:04.759Z,44.81
2016-06-22T13:37:04.175Z,44.23
2016-06-22T13:38:19.084Z,43.66
2016-06-22T13:39:04.846Z,44.52
2016-06-22T13:40:04.882Z,44.03
2016-06-22T13:41:04.908Z,44.42
2016-06-22T13:42:04.933Z,44.59
2016-06-22T13:43:04.362Z,44.01
2016-06-22T13:44:04.997Z,43.91
2016-06-22T13:45:05.041Z,44.59
2016-06-22T13:46:04.449Z,45.67
2016-06-22T13:47:04.494Z,45.57
2016-06-22T13:48:04.517Z,44.89
2016-06-22T13:49:04.555Z,45.47
2016-06-22T13:50:05.179Z,45.57
2016-06-22T13:51:05.210Z,44.4
2016-06-22T13:52:04.646Z,44.98
2016-06-22T13:53:04.663Z,45.57
2016-06-22T13:54:19.575Z,46.54
2016-06-22T13:55:05.337Z,46.54
2016-06-22T13:56:04.755Z,46.05